createdAt,value
2022-11-17T00:02:22.000Z,11.70
2022-11-17T00:07:24.308Z,15.00
2022-11-17T00:12:45.147Z,13.17
2022-11-17T00:17:49.010Z,13.77
2022-11-17T00:22:51.145Z,18.97
2022-11-17T00:27:53.343Z,12.73
2022-11-17T00:33:14.162Z,19.17
2022-11-17T00:38:16.360Z,18.10
2022-11-17T00:43:18.493Z,16.33
2022-11-17T00:48:20.651Z,11.90
2022-11-17T00:53:22.783Z,16.43
2022-11-17T00:58:24.822Z,19.07
2022-11-17T01:03:26.857Z,13.50
2022-11-17T01:08:28.865Z,11.73
2022-11-17T01:13:30.961Z,17.97
2022-11-17T01:18:33.247Z,18.00
2022-11-17T01:23:36.546Z,12.47
2022-11-17T01:28:39.408Z,14.43
2022-11-17T01:33:41.905Z,15.27
2022-11-17T01:38:44.261Z,14.13
2022-11-17T01:43:55.157Z,16.63
2022-11-17T01:49:25.064Z,13.70
2022-11-17T01:54:28.472Z,14.77
2022-11-17T01:59:37.047Z,17.10
2022-11-17T02:04:47.581Z,13.63
2022-11-17T02:09:49.872Z,13.60
2022-11-17T02:14:52.289Z,13.93
2022-11-17T02:20:17.452Z,16.70
2022-11-17T02:25:36.760Z,12.77
2022-11-17T02:30:47.623Z,14.32
2022-11-17T02:36:03.592Z,11.87
2022-11-17T02:41:37.725Z,14.83
2022-11-17T02:46:47.892Z,12.03
2022-11-17T02:51:52.171Z,13.03
2022-11-17T02:56:54.172Z,17.77
2022-11-17T03:01:59.539Z,13.80
2022-11-17T03:07:35.685Z,13.13
2022-11-17T03:12:46.918Z,14.23
2022-11-17T03:18:23.266Z,12.67
2022-11-17T03:23:33.432Z,13.30
2022-11-17T03:28:36.716Z,14.07
2022-11-17T03:33:39.608Z,12.83
2022-11-17T03:38:46.930Z,15.57
2022-11-17T03:43:52.010Z,11.23
2022-11-17T03:48:55.933Z,16.00
2022-11-17T03:53:58.061Z,13.83
2022-11-17T03:59:08.666Z,13.57
2022-11-17T04:04:18.622Z,13.97
2022-11-17T04:09:24.378Z,12.67
2022-11-17T04:14:45.165Z,18.07
2022-11-17T04:19:48.409Z,12.37
2022-11-17T04:24:50.511Z,13.20
2022-11-17T04:29:52.633Z,18.57
2022-11-17T04:34:54.696Z,13.07
2022-11-17T04:39:56.727Z,12.70
2022-11-17T04:44:58.806Z,13.60
2022-11-17T04:50:01.300Z,14.10
2022-11-17T04:55:05.319Z,15.83
2022-11-17T05:00:08.151Z,14.70
2022-11-17T05:05:10.209Z,11.87
2022-11-17T05:10:14.076Z,13.80
2022-11-17T05:15:36.102Z,12.47
2022-11-17T05:20:38.121Z,13.70
2022-11-17T05:25:40.228Z,15.23
2022-11-17T05:30:42.939Z,12.10
2022-11-17T05:35:45.039Z,13.47
2022-11-17T05:40:47.092Z,12.07
2022-11-17T05:45:49.269Z,17.23
2022-11-17T05:50:57.699Z,15.83
2022-11-17T05:56:09.423Z,12.57
2022-11-17T06:01:13.902Z,15.03
2022-11-17T06:06:34.347Z,13.77
2022-11-17T06:11:36.435Z,13.70
2022-11-17T06:16:42.073Z,13.90
2022-11-17T06:22:10.708Z,12.33
2022-11-17T06:27:06.225Z,14.13
2022-11-17T06:32:08.226Z,15.83
2022-11-17T06:37:11.574Z,16.53
2022-11-17T06:42:13.604Z,13.50
2022-11-17T06:47:15.625Z,15.63
2022-11-17T06:52:17.722Z,19.10
2022-11-17T06:57:19.741Z,15.67
2022-11-17T07:02:21.710Z,15.50
2022-11-17T07:07:36.677Z,16.47
2022-11-17T07:12:38.771Z,12.13
2022-11-17T07:17:40.782Z,13.13
2022-11-17T07:22:43.068Z,13.90
2022-11-17T07:27:45.105Z,16.27
2022-11-17T07:32:53.390Z,19.33
2022-11-17T07:37:58.497Z,14.40
2022-11-17T07:43:01.293Z,14.60
2022-11-17T07:48:06.470Z,16.03
2022-11-17T07:53:08.536Z,17.10
2022-11-17T07:58:10.528Z,14.27
2022-11-17T08:03:12.710Z,19.97
2022-11-17T08:08:14.783Z,16.37
2022-11-17T08:13:16.961Z,15.43
2022-11-17T08:18:19.156Z,15.97
2022-11-17T08:23:21.401Z,18.10
2022-11-17T08:28:23.625Z,21.80
2022-11-17T08:33:25.767Z,21.93
2022-11-17T08:38:31.136Z,19.33
2022-11-17T08:43:34.084Z,18.90
2022-11-17T08:48:36.600Z,18.43
2022-11-17T08:53:38.975Z,18.77
2022-11-17T08:58:42.946Z,18.43
2022-11-17T09:03:46.574Z,19.67
2022-11-17T09:08:49.127Z,22.30
2022-11-17T09:13:51.436Z,22.87
2022-11-17T09:18:58.441Z,23.20
2022-11-17T09:24:00.572Z,19.97
2022-11-17T09:29:04.262Z,17.80
2022-11-17T09:34:06.712Z,18.00
2022-11-17T09:39:09.200Z,19.77
2022-11-17T09:44:11.327Z,18.93
2022-11-17T09:49:44.060Z,20.00
2022-11-17T09:54:56.534Z,15.70
2022-11-17T10:00:06.055Z,19.53
2022-11-17T10:05:25.486Z,21.07
2022-11-17T10:10:45.291Z,21.92
2022-11-17T10:15:49.721Z,18.45
2022-11-17T10:20:51.861Z,18.13
2022-11-17T10:25:58.595Z,26.03
2022-11-17T10:31:15.737Z,21.70
2022-11-17T10:36:24.536Z,23.03
2022-11-17T10:41:40.481Z,18.75
2022-11-17T10:47:04.379Z,12.80
2022-11-17T10:52:15.693Z,11.43
2022-11-17T10:57:23.360Z,13.67
2022-11-17T11:02:33.881Z,9.70
2022-11-17T11:07:36.518Z,9.43
2022-11-17T11:13:08.017Z,8.67
2022-11-17T11:18:17.647Z,7.83
2022-11-17T11:23:44.099Z,11.87
2022-11-17T11:29:17.493Z,5.20
2022-11-17T11:34:49.720Z,13.03
2022-11-17T11:40:15.720Z,7.83
2022-11-17T11:45:27.034Z,7.17
2022-11-17T11:50:38.991Z,9.83
2022-11-17T11:55:47.339Z,10.10
2022-11-17T12:00:52.702Z,9.13
2022-11-17T12:06:40.843Z,9.40
2022-11-17T12:12:01.201Z,8.10
2022-11-17T12:17:26.455Z,8.07
2022-11-17T12:22:34.486Z,13.07
2022-11-17T12:27:36.668Z,9.07
2022-11-17T12:32:45.028Z,6.27
2022-11-17T12:37:47.105Z,8.83
2022-11-17T12:43:17.395Z,6.33
2022-11-17T12:54:00.076Z,6.40
2022-11-17T12:59:15.084Z,6.63
2022-11-17T13:04:21.130Z,3.03
2022-11-17T13:09:26.265Z,5.00
2022-11-17T13:14:28.481Z,4.83
2022-11-17T13:19:38.046Z,5.67
2022-11-17T13:24:42.793Z,5.50
2022-11-17T13:29:44.856Z,7.53
2022-11-17T13:35:06.215Z,7.67
2022-11-17T13:40:22.396Z,8.83
2022-11-17T13:45:24.783Z,5.73
2022-11-17T13:50:27.006Z,4.67
2022-11-17T13:55:29.801Z,5.43
2022-11-17T14:00:32.777Z,2.97
2022-11-17T14:05:35.001Z,3.43
2022-11-17T14:10:38.869Z,3.30
2022-11-17T14:15:42.667Z,7.77
2022-11-17T14:20:44.894Z,3.83
2022-11-17T14:25:51.666Z,3.67
2022-11-17T14:30:55.610Z,4.03
2022-11-17T14:35:59.729Z,4.63
2022-11-17T14:41:01.931Z,5.17
2022-11-17T14:46:04.187Z,3.53
2022-11-17T14:51:06.519Z,4.30
2022-11-17T14:56:09.647Z,3.93
2022-11-17T15:01:16.468Z,6.10
2022-11-17T15:06:20.325Z,2.73
2022-11-17T15:11:23.846Z,4.53
2022-11-17T15:16:26.088Z,2.77
2022-11-17T15:21:28.277Z,5.03
2022-11-17T15:26:30.483Z,5.70
2022-11-17T15:31:32.629Z,4.80
2022-11-17T15:36:34.785Z,4.47
2022-11-17T15:41:37.211Z,2.40
2022-11-17T15:46:44.316Z,3.00
2022-11-17T15:51:49.377Z,3.63
2022-11-17T15:56:52.319Z,3.63
2022-11-17T16:01:54.545Z,3.83
2022-11-17T16:06:56.760Z,3.13
2022-11-17T16:11:59.193Z,5.03
2022-11-17T16:17:01.591Z,4.67
2022-11-17T16:22:03.836Z,3.47
2022-11-17T16:27:06.133Z,2.87
2022-11-17T16:32:08.689Z,5.63
2022-11-17T16:37:10.881Z,4.97
2022-11-17T16:42:13.042Z,5.20
2022-11-17T16:47:15.247Z,4.10
2022-11-17T16:52:17.428Z,5.97
2022-11-17T16:57:19.620Z,4.43
2022-11-17T17:02:21.940Z,3.90
2022-11-17T17:07:24.286Z,4.60
2022-11-17T17:12:27.643Z,6.10
2022-11-17T17:17:29.831Z,3.70
2022-11-17T17:22:32.015Z,2.77
2022-11-17T17:27:34.277Z,3.13
2022-11-17T17:32:37.513Z,5.37
2022-11-17T17:37:39.710Z,4.73
2022-11-17T17:42:41.990Z,2.60
2022-11-17T17:47:44.140Z,3.93
2022-11-17T17:52:46.335Z,3.83
2022-11-17T17:57:48.474Z,2.93
2022-11-17T18:02:50.793Z,3.63
2022-11-17T18:07:53.182Z,3.07
2022-11-17T18:12:55.398Z,2.77
2022-11-17T18:17:57.584Z,4.13
2022-11-17T18:22:59.828Z,3.70
2022-11-17T18:28:02.371Z,2.83
2022-11-17T18:33:04.768Z,3.30
2022-11-17T18:38:07.105Z,4.63
2022-11-17T18:43:09.353Z,5.80
2022-11-17T18:48:13.701Z,4.57
2022-11-17T18:53:15.913Z,3.63
2022-11-17T18:58:18.058Z,3.93
2022-11-17T19:03:20.266Z,3.60
2022-11-17T19:08:23.109Z,2.97
2022-11-17T19:13:25.888Z,4.13
2022-11-17T19:18:28.062Z,7.47
2022-11-17T19:23:32.648Z,3.30
2022-11-17T19:28:35.519Z,3.17
2022-11-17T19:33:39.210Z,2.30
2022-11-17T19:38:43.286Z,2.63
2022-11-17T19:43:45.803Z,3.87
2022-11-17T19:48:48.191Z,4.43
2022-11-17T19:53:52.562Z,5.07
2022-11-17T19:58:55.848Z,3.50
2022-11-17T20:04:00.331Z,4.00
2022-11-17T20:09:07.150Z,6.30
2022-11-17T20:14:09.572Z,3.63
2022-11-17T20:19:12.436Z,3.50
2022-11-17T20:24:14.574Z,6.13
2022-11-17T20:29:16.987Z,3.40
2022-11-17T20:34:19.862Z,5.10
2022-11-17T20:39:22.127Z,2.43
2022-11-17T20:44:24.335Z,3.33
2022-11-17T20:49:28.391Z,4.30
2022-11-17T20:54:30.659Z,5.80
2022-11-17T20:59:32.799Z,4.70
2022-11-17T21:04:34.975Z,5.07
2022-11-17T21:09:38.026Z,4.70
2022-11-17T21:14:43.265Z,7.47
2022-11-17T21:19:45.326Z,4.80
2022-11-17T21:24:47.563Z,4.03
2022-11-17T21:29:49.846Z,4.60
2022-11-17T21:34:52.023Z,3.33
2022-11-17T21:39:54.149Z,9.30
2022-11-17T21:44:56.235Z,5.20
2022-11-17T21:49:58.342Z,4.77
2022-11-17T21:55:00.410Z,6.23
2022-11-17T22:00:02.544Z,3.83
2022-11-17T22:05:07.121Z,4.67
2022-11-17T22:10:09.613Z,5.73
2022-11-17T22:15:11.969Z,4.30
2022-11-17T22:20:14.153Z,4.20
2022-11-17T22:25:42.938Z,4.50
2022-11-17T22:30:39.169Z,3.90
2022-11-17T22:35:41.336Z,4.60
2022-11-17T22:40:43.797Z,3.87
2022-11-17T22:45:45.942Z,4.50
2022-11-17T22:50:48.221Z,2.83
2022-11-17T22:55:50.430Z,3.90
2022-11-17T23:00:53.347Z,6.07
2022-11-17T23:05:55.507Z,4.43
2022-11-17T23:11:36.005Z,4.00
2022-11-17T23:21:40.931Z,4.23
2022-11-17T23:26:43.241Z,5.60
2022-11-17T23:31:45.420Z,5.13
2022-11-17T23:36:47.785Z,5.33
2022-11-17T23:41:50.003Z,6.07
2022-11-17T23:46:52.292Z,3.73
2022-11-17T23:51:54.492Z,3.97
2022-11-17T23:56:56.679Z,4.17
